Terminal Aerodrome Forecast
Issued by NWS Huntsville, AL

Home | Current Version | Previous Version | Text Only | Print | Product List | Glossary On
Versions: 1 2 3 4 5 6 7 8 9 10 11 12 13 14 15 16 17
000
FTUS44 KHUN 211720
TAFMSL
TAF
KMSL 211720Z 2118/2218 14011G18KT P6SM SCT060 SCT250
     FM220500 11010KT P6SM BKN050 OVC100
      TEMPO 2206/2209 6SM -SHRA OVC050
     FM220900 13012KT 6SM -SHRA OVC025
     FM221500 12012KT 4SM SHRA BKN015 OVC025=

USA.gov is the U.S. government's official web portal to all federal, state and local government web resources and services.